Kezdőlap
METAR-TAF:

METAR-TAF

Repülőterek :

Verona, Olaszország

földrajzi szélesség: 45-23N, földrajzi hosszúság: 010-52E, magasság: 67 m

Jelenlegi meteorológiai megfigyelések

A jelentés 29 perccel ezelõtt készült, 23:50 UTC
Északi szél 5 kt
Hőmérséklet 7°C
Páratartalom 66%
Légköri nyomás 1024 hPa
Látótávolság 10 km, vagy több

METAR: LIPX 042350Z AUTO 35005KT 9999 FEW068/// 07/01 Q1024

Idő: 02:19 (00:19 UTC)

Előrejelzés

A jelentés 4 órával és 19 perccel ezelõtt készült, 20:00 UTC
Az előrejelzés 04-én 21 óra UTC és 05-én 06 óra UTC között érvényes
Különbözõ irányokból fújó szél 5 kt
Látótávolság 10 km, vagy több
felhőtlen 1500 m magasságban, és nincs gomolyfelhõ

TAF: LIPX 042000Z 0421/0506 VRB05KT CAVOK

Meteorológiai megfigyelések és előrejelzések több, mint 4000 repülőtéren (METAR és TAF jelentéseket).

A térképen piros és sárga pontok jelzik az elérhető meteorológiai állomásokat.

Mozgassa az egeret a pont fölött, hogy megjelenjen az állomás neve.

Azután kattintson az időjárási megfigyelések és előrejelzések megtekintéséhez.

A térkép megváltoztatása: kattintson a fekete keresztel jelölt zöld gombra ráközelítéshez, a vonallal jelölt zöld gombra távolításhoz, vagy a zöld nyilakra a szomszédos térképek eléréséhez.


METAR-TAF: